Time;durP1;ratioP1;P1;durP2;ratioP2;P2;SDS_P1;SDS_P2;PMS_P1;PMS_P2;Temp;Humidity;BMP_temperature;BMP_pressure;BME280_temperature;BME280_humidity;BME280_pressure;Samples;Min_cycle;Max_cycle;Signal;HPM_P1;HPM_P2
2023/04/18 00:00:11;;;;;;;40.63;17.02;;;;;;;9.68;65.84;100484.59;5010001;28;20411;-86
2023/04/18 00:02:38;;;;;;;37.05;16.55;;;;;;;9.74;65.81;100478.81;5008284;28;20050;-85
2023/04/18 00:05:06;;;;;;;38.42;17.23;;;;;;;9.66;66.06;100486.50;4997857;28;20049;-86
2023/04/18 00:07:36;;;;;;;39.83;17.95;;;;;;;9.63;66.41;100478.78;4966121;28;20050;-85
2023/04/18 00:10:04;;;;;;;33.22;17.20;;;;;;;9.61;66.35;100472.75;4979976;28;20498;-86
2023/04/18 00:12:33;;;;;;;34.15;18.10;;;;;;;9.58;66.32;100473.81;4993240;28;20053;-86
2023/04/18 00:15:01;;;;;;;35.80;17.80;;;;;;;9.58;66.40;100476.47;4972985;28;20050;-86
2023/04/18 00:17:30;;;;;;;39.33;16.85;;;;;;;9.47;66.51;100471.97;5012032;28;20049;-86
2023/04/18 00:19:57;;;;;;;31.20;15.43;;;;;;;9.48;66.66;100463.03;4994000;28;20509;-86
2023/04/18 00:22:24;;;;;;;37.22;17.35;;;;;;;9.48;66.91;100471.00;5010364;28;20383;-86
2023/04/18 00:24:51;;;;;;;48.30;18.40;;;;;;;9.46;66.87;100469.41;4994455;28;20053;-85
2023/04/18 00:27:18;;;;;;;37.92;16.58;;;;;;;9.49;66.83;100459.44;4970783;28;20061;-86
2023/04/18 00:29:46;;;;;;;38.25;15.77;;;;;;;9.49;67.34;100464.75;4991361;28;20125;-85
2023/04/18 00:32:15;;;;;;;34.85;16.05;;;;;;;9.50;66.97;100460.28;4994712;28;20325;-86
2023/04/18 00:34:42;;;;;;;46.40;19.77;;;;;;;9.46;67.26;100462.31;4979014;28;20057;-85
2023/04/18 00:37:11;;;;;;;39.58;17.02;;;;;;;9.42;67.38;100462.66;5014152;28;20050;-85
2023/04/18 00:39:38;;;;;;;36.17;16.40;;;;;;;9.53;66.83;100450.28;5008134;28;20045;-86
2023/04/18 00:42:05;;;;;;;36.95;17.75;;;;;;;9.43;66.94;100459.88;4994587;28;20046;-86
2023/04/18 00:44:32;;;;;;;34.80;17.17;;;;;;;9.41;66.88;100453.00;4996148;28;20546;-86
2023/04/18 00:46:59;;;;;;;36.13;16.75;;;;;;;9.42;66.85;100462.66;4991016;28;20041;-86
2023/04/18 00:49:26;;;;;;;46.00;18.45;;;;;;;9.48;66.59;100462.19;5011830;28;20053;-86
2023/04/18 00:51:54;;;;;;;38.88;17.17;;;;;;;9.38;66.57;100453.25;4976979;28;20151;-86
2023/04/18 00:54:22;;;;;;;43.13;17.83;;;;;;;9.33;66.73;100469.47;4996521;28;20049;-85
2023/04/18 00:56:49;;;;;;;41.53;17.58;;;;;;;9.46;66.45;100458.81;4994325;28;20061;-85
2023/04/18 00:59:16;;;;;;;42.05;17.48;;;;;;;9.40;66.55;100460.13;4965625;28;20529;-85
2023/04/18 01:01:43;;;;;;;41.10;16.45;;;;;;;9.38;66.57;100467.31;4990811;28;20052;-85
2023/04/18 01:04:11;;;;;;;39.15;18.58;;;;;;;9.24;66.67;100463.06;5028785;28;20064;-86
2023/04/18 01:06:39;;;;;;;42.78;17.80;;;;;;;9.17;66.68;100460.97;4980445;28;20383;-85
2023/04/18 01:09:06;;;;;;;39.15;17.40;;;;;;;9.28;66.90;100467.16;4993588;28;20097;-86
2023/04/18 01:11:33;;;;;;;36.33;17.48;;;;;;;9.23;66.68;100471.94;4995326;28;20580;-86
2023/04/18 01:14:01;;;;;;;35.95;18.15;;;;;;;9.29;66.79;100460.06;5011215;28;20037;-85
2023/04/18 01:16:29;;;;;;;34.97;16.50;;;;;;;9.15;66.78;100454.91;5010000;28;20073;-86
2023/04/18 01:18:55;;;;;;;41.17;17.73;;;;;;;9.22;66.91;100454.34;4997233;28;20425;-86
2023/04/18 01:21:22;;;;;;;39.72;16.95;;;;;;;9.22;67.06;100446.41;4981258;28;20155;-85
2023/04/18 01:23:50;;;;;;;40.63;16.63;;;;;;;9.20;66.92;100448.31;4998839;28;20046;-86
2023/04/18 01:26:17;;;;;;;39.90;17.17;;;;;;;9.21;67.21;100442.09;4985019;28;20045;-86
2023/04/18 01:28:43;;;;;;;42.72;17.48;;;;;;;9.11;66.77;100454.31;5012426;28;20075;-86
2023/04/18 01:31:10;;;;;;;36.30;17.48;;;;;;;9.22;66.41;100442.91;5007330;28;20050;-85
2023/04/18 01:33:37;;;;;;;37.10;16.90;;;;;;;9.31;66.70;100440.44;4980455;28;20053;-86
2023/04/18 01:36:04;;;;;;;40.83;17.02;;;;;;;9.11;67.01;100444.56;4985743;28;20044;-85
2023/04/18 01:38:31;;;;;;;43.97;17.08;;;;;;;9.27;66.32;100446.09;5005528;28;20499;-86
2023/04/18 01:40:59;;;;;;;37.00;16.75;;;;;;;9.09;66.58;100443.81;5010008;28;20057;-85
2023/04/18 01:43:26;;;;;;;36.42;16.50;;;;;;;9.18;66.27;100441.44;4989596;28;20723;-85
2023/04/18 01:45:53;;;;;;;37.72;16.65;;;;;;;9.16;66.80;100441.56;4999862;28;20058;-85
2023/04/18 01:48:20;;;;;;;37.38;16.05;;;;;;;9.16;66.74;100441.56;4991605;28;20053;-85
2023/04/18 01:50:47;;;;;;;40.22;17.33;;;;;;;9.10;66.19;100437.53;4997815;28;20038;-86
2023/04/18 01:53:14;;;;;;;35.45;15.75;;;;;;;9.11;66.57;100443.72;4988313;28;20063;-86
2023/04/18 01:55:43;;;;;;;37.53;16.98;;;;;;;9.05;66.32;100438.84;4968174;28;20474;-86
2023/04/18 01:58:10;;;;;;;36.88;16.55;;;;;;;9.13;66.34;100436.47;5000902;28;20041;-85
2023/04/18 02:00:36;;;;;;;41.08;16.60;;;;;;;9.17;66.37;100439.75;4998126;28;20124;-85
2023/04/18 02:03:04;;;;;;;37.22;17.10;;;;;;;9.09;66.17;100430.56;4968052;28;20210;-86
2023/04/18 02:05:31;;;;;;;54.58;15.45;;;;;;;9.08;66.08;100426.22;4991561;28;20053;-85
2023/04/18 02:07:58;;;;;;;39.42;17.17;;;;;;;9.10;66.13;100426.94;5014501;28;20053;-86
2023/04/18 02:10:25;;;;;;;37.47;16.77;;;;;;;9.05;66.00;100425.59;5006144;28;20091;-86
2023/04/18 02:12:52;;;;;;;37.40;16.00;;;;;;;8.96;66.40;100428.94;4989625;28;20083;-86
2023/04/18 02:15:18;;;;;;;33.28;15.75;;;;;;;8.87;66.02;100428.59;4996294;28;20049;-86
2023/04/18 02:17:45;;;;;;;35.67;15.82;;;;;;;8.91;65.80;100435.38;5018050;28;20041;-86
2023/04/18 02:20:13;;;;;;;32.28;15.52;;;;;;;8.92;66.03;100438.88;4996355;28;20048;-86
2023/04/18 02:22:40;;;;;;;35.33;15.18;;;;;;;8.98;65.77;100425.22;4986620;28;20120;-86
2023/04/18 02:25:07;;;;;;;36.38;16.45;;;;;;;8.84;66.38;100428.84;4991700;28;20391;-85
2023/04/18 02:27:34;;;;;;;33.58;14.98;;;;;;;8.89;66.28;100433.81;4971204;28;20397;-85
2023/04/18 02:30:01;;;;;;;33.78;16.25;;;;;;;8.72;66.20;100436.81;4996292;28;20132;-86
2023/04/18 02:32:32;;;;;;;35.30;16.52;;;;;;;8.69;66.50;100427.28;4988652;28;20889;-85
2023/04/18 02:34:59;;;;;;;32.97;14.95;;;;;;;8.76;66.06;100438.28;4988089;28;20041;-85
2023/04/18 02:37:25;;;;;;;37.50;15.98;;;;;;;8.59;66.94;100452.72;4970327;28;20053;-85
2023/04/18 02:39:52;;;;;;;39.63;15.07;;;;;;;8.69;66.42;100429.94;4997486;28;20645;-86
2023/04/18 02:42:19;;;;;;;31.58;15.32;;;;;;;8.65;66.46;100437.25;4995750;28;20053;-86
2023/04/18 02:44:46;;;;;;;36.08;15.48;;;;;;;8.64;67.04;100447.94;4995510;28;20107;-86
2023/04/18 02:47:13;;;;;;;34.13;15.18;;;;;;;8.65;66.60;100434.63;5012541;28;20048;-86
2023/04/18 02:49:42;;;;;;;36.20;15.45;;;;;;;8.65;66.68;100434.63;5008453;28;20053;-85
2023/04/18 02:52:09;;;;;;;35.13;15.82;;;;;;;8.62;66.72;100440.09;5001460;28;20091;-86
2023/04/18 02:54:36;;;;;;;35.42;14.93;;;;;;;8.63;66.71;100448.91;4985995;28;20041;-86
2023/04/18 02:57:15;;;;;;;31.65;14.52;;;;;;;8.70;66.46;100444.84;4999231;28;20053;-85
2023/04/18 02:59:56;;;;;;;31.10;15.27;;;;;;;8.61;66.68;100449.00;5000929;28;20680;-86
2023/04/18 03:02:52;;;;;;;37.00;15.55;;;;;;;8.79;65.94;100446.00;4995473;28;20050;-85
2023/04/18 03:05:36;;;;;;;32.25;15.23;;;;;;;8.63;66.90;100452.41;4984729;28;20070;-86
2023/04/18 03:08:04;;;;;;;36.10;16.00;;;;;;;8.77;66.10;100448.75;4969631;28;20128;-85
2023/04/18 03:10:32;;;;;;;35.70;15.55;;;;;;;8.67;66.45;100445.91;4997199;28;20441;-85
2023/04/18 03:13:00;;;;;;;34.85;16.23;;;;;;;8.65;66.67;100437.25;4982008;28;20041;-86
2023/04/18 03:15:29;;;;;;;35.28;15.75;;;;;;;8.67;66.45;100437.97;4969406;28;20398;-85
2023/04/18 03:17:57;;;;;;;30.48;14.68;;;;;;;8.73;66.46;100444.66;5013149;28;20041;-86
2023/04/18 03:20:27;;;;;;;32.50;14.68;;;;;;;8.69;66.58;100432.56;4996883;28;20046;-86
2023/04/18 03:22:54;;;;;;;32.67;14.32;;;;;;;8.67;66.74;100440.63;4996614;28;20049;-85
2023/04/18 03:25:24;;;;;;;29.13;14.82;;;;;;;8.59;67.29;100444.78;4994913;28;20080;-85
2023/04/18 03:27:52;;;;;;;28.73;13.05;;;;;;;8.66;67.00;100435.44;4995132;28;20140;-86
2023/04/18 03:30:21;;;;;;;36.50;14.10;;;;;;;8.63;66.90;100447.09;5013004;28;20052;-85
2023/04/18 03:32:52;;;;;;;30.00;14.65;;;;;;;8.63;66.89;100436.50;4999390;28;20072;-86
2023/04/18 03:35:19;;;;;;;35.30;15.88;;;;;;;8.50;67.09;100443.63;5000449;28;20049;-86
2023/04/18 03:37:46;;;;;;;32.92;15.13;;;;;;;8.67;66.45;100439.78;4971572;28;20048;-85
2023/04/18 03:40:21;;;;;;;39.00;15.27;;;;;;;8.68;66.66;100438.84;4987394;28;20049;-85
2023/04/18 03:42:49;;;;;;;36.42;14.90;;;;;;;8.68;66.66;100429.09;4994260;28;20135;-86
2023/04/18 03:45:16;;;;;;;30.50;14.65;;;;;;;8.60;67.23;100434.09;4994146;28;20045;-85
2023/04/18 03:47:45;;;;;;;31.77;13.85;;;;;;;8.59;67.02;100432.38;4995188;28;20155;-85
2023/04/18 03:50:12;;;;;;;27.83;13.52;;;;;;;8.57;67.27;100447.50;4981238;28;20075;-86
2023/04/18 03:52:41;;;;;;;33.38;15.43;;;;;;;8.53;67.00;100432.81;4994209;28;20049;-86
2023/04/18 03:55:08;;;;;;;33.40;14.52;;;;;;;8.59;67.09;100437.66;4982538;28;20056;-86
2023/04/18 03:57:35;;;;;;;31.67;14.40;;;;;;;8.56;67.05;100431.75;4998152;28;20076;-85
2023/04/18 04:00:07;;;;;;;41.28;16.35;;;;;;;8.42;67.45;100436.22;4994613;28;20054;-85
2023/04/18 04:02:41;;;;;;;33.47;14.82;;;;;;;8.52;67.29;100438.22;5014762;28;20463;-85
2023/04/18 04:05:11;;;;;;;31.83;14.25;;;;;;;8.49;67.45;100433.97;4980874;28;20049;-85
2023/04/18 04:07:38;;;;;;;33.33;15.75;;;;;;;8.46;67.78;100440.34;4981666;28;20088;-86
2023/04/18 04:10:08;;;;;;;34.25;15.15;;;;;;;8.53;67.37;100437.28;4980827;28;20056;-85
2023/04/18 04:12:35;;;;;;;35.42;15.27;;;;;;;8.31;67.83;100437.88;4997049;28;20045;-85
2023/04/18 04:15:02;;;;;;;28.90;13.55;;;;;;;8.52;67.30;100439.06;5008970;28;20058;-85
2023/04/18 04:17:29;;;;;;;38.88;15.82;;;;;;;8.46;67.22;100442.97;4974893;28;20048;-85
2023/04/18 04:19:57;;;;;;;39.95;16.20;;;;;;;8.37;67.30;100438.31;4976853;28;20588;-85
2023/04/18 04:22:24;;;;;;;31.38;13.85;;;;;;;8.46;67.18;100440.34;4957156;28;20160;-85
2023/04/18 04:24:51;;;;;;;31.88;14.70;;;;;;;8.53;67.31;100443.41;4968920;28;20045;-85
2023/04/18 04:27:25;;;;;;;30.27;14.00;;;;;;;8.51;67.08;100447.97;4993492;28;20049;-85
2023/04/18 04:29:53;;;;;;;29.13;14.68;;;;;;;8.42;67.64;100451.25;4981662;28;20053;-85
2023/04/18 04:32:20;;;;;;;32.80;13.93;;;;;;;8.47;68.17;100463.22;4993205;28;20045;-85
2023/04/18 04:34:48;;;;;;;28.35;14.27;;;;;;;8.51;68.22;100463.00;4993723;28;20057;-85
2023/04/18 04:37:17;;;;;;;30.40;13.98;;;;;;;8.48;68.13;100467.56;5000647;28;20080;-85
2023/04/18 04:40:10;;;;;;;25.83;14.10;;;;;;;8.50;67.85;100475.41;4998799;28;20061;-86
2023/04/18 04:42:52;;;;;;;35.95;14.75;;;;;;;8.53;67.88;100474.34;4991531;28;20052;-85
2023/04/18 04:45:25;;;;;;;31.65;14.75;;;;;;;8.50;67.88;100477.16;4986459;28;20042;-85
2023/04/18 04:47:52;;;;;;;30.90;14.43;;;;;;;8.55;68.00;100483.00;4987024;28;20060;-86
2023/04/18 04:50:19;;;;;;;36.17;15.00;;;;;;;8.52;68.13;100489.34;4984239;28;20456;-85
2023/04/18 04:52:46;;;;;;;33.33;14.27;;;;;;;8.58;67.82;100480.16;4993768;28;20129;-85
2023/04/18 04:55:13;;;;;;;31.13;13.85;;;;;;;8.59;68.03;100489.78;4980364;28;20057;-85
2023/04/18 04:57:41;;;;;;;34.55;14.63;;;;;;;8.55;67.83;100489.16;4989977;28;20108;-86
2023/04/18 05:00:29;;;;;;;35.13;16.30;;;;;;;8.39;68.36;100492.00;4994284;28;20164;-85
2023/04/18 05:02:56;;;;;;;32.03;15.00;;;;;;;8.47;68.12;100492.34;5011763;28;20057;-86
2023/04/18 05:05:25;;;;;;;29.63;14.20;;;;;;;8.45;68.14;100490.75;4992473;28;20410;-85
2023/04/18 05:07:52;;;;;;;36.08;15.07;;;;;;;8.47;68.57;100494.97;4995446;28;20079;-85
2023/04/18 05:10:18;;;;;;;37.40;15.05;;;;;;;8.42;69.05;100493.59;4977006;28;20054;-85
2023/04/18 05:12:45;;;;;;;34.67;15.68;;;;;;;8.41;68.71;100497.19;4995226;28;20046;-86
2023/04/18 05:15:14;;;;;;;34.17;14.02;;;;;;;8.50;68.87;100496.56;4995429;28;20502;-85
2023/04/18 05:17:41;;;;;;;35.70;12.70;;;;;;;8.46;69.02;100487.13;4982780;28;20491;-85
2023/04/18 05:20:09;;;;;;;34.63;14.05;;;;;;;8.45;68.92;100491.59;4998244;28;20041;-85
2023/04/18 05:22:35;;;;;;;34.47;14.52;;;;;;;8.48;68.95;100486.06;4984221;28;20057;-85
2023/04/18 05:25:02;;;;;;;32.88;15.35;;;;;;;8.47;69.58;100488.81;4978601;28;20072;-85
2023/04/18 05:27:29;;;;;;;31.73;14.90;;;;;;;8.33;69.59;100487.09;4999949;28;20045;-85
2023/04/18 05:29:56;;;;;;;33.25;14.43;;;;;;;8.36;69.67;100499.28;4998294;28;20057;-85
2023/04/18 05:32:23;;;;;;;33.13;14.88;;;;;;;8.32;70.20;100497.78;5004160;28;20050;-86
2023/04/18 05:34:50;;;;;;;36.25;14.93;;;;;;;8.31;70.18;100499.59;4987617;28;20060;-85
2023/04/18 05:37:16;;;;;;;34.88;15.25;;;;;;;8.25;70.70;100502.66;4999149;28;20137;-85
2023/04/18 05:39:43;;;;;;;33.83;15.73;;;;;;;8.47;69.94;100499.41;5007312;28;20054;-85
2023/04/18 05:42:10;;;;;;;35.30;14.57;;;;;;;8.35;70.33;100493.13;4993913;28;20052;-85
2023/04/18 05:44:37;;;;;;;36.40;15.23;;;;;;;8.44;70.17;100504.91;5012068;28;20691;-85
2023/04/18 05:47:06;;;;;;;39.70;14.25;;;;;;;8.44;70.17;100502.28;4979929;28;20041;-86
2023/04/18 05:49:34;;;;;;;33.88;15.05;;;;;;;8.52;69.59;100496.44;4969045;28;20452;-86
2023/04/18 05:52:00;;;;;;;36.13;14.30;;;;;;;8.54;69.93;100510.44;4994014;28;20069;-86
2023/04/18 05:54:27;;;;;;;36.53;15.75;;;;;;;8.57;70.31;100499.63;4994562;28;20488;-85
2023/04/18 05:56:56;;;;;;;38.47;16.52;;;;;;;8.55;70.62;100506.81;4994679;28;20137;-86
2023/04/18 05:59:23;;;;;;;31.58;14.98;;;;;;;8.48;70.77;100512.53;4984988;28;20053;-86
2023/04/18 06:01:50;;;;;;;44.58;14.75;;;;;;;8.50;70.64;100508.94;5008774;28;20049;-86
2023/04/18 06:04:18;;;;;;;34.38;15.60;;;;;;;8.48;70.96;100514.34;4983233;28;20461;-85
2023/04/18 06:06:45;;;;;;;38.53;14.95;;;;;;;8.52;71.17;100510.53;4980190;28;20037;-85
2023/04/18 06:09:12;;;;;;;38.53;14.75;;;;;;;8.41;71.39;100507.78;4977089;28;20130;-85
2023/04/18 06:11:39;;;;;;;35.03;15.82;;;;;;;8.50;71.36;100519.53;4986014;28;20613;-85
2023/04/18 06:14:06;;;;;;;33.00;15.68;;;;;;;8.56;70.88;100514.66;5017072;28;20042;-85
2023/04/18 06:16:35;;;;;;;35.28;15.23;;;;;;;8.50;71.16;100517.75;4995166;28;20056;-86
2023/04/18 06:19:02;;;;;;;38.47;16.60;;;;;;;8.57;71.21;100516.34;4995266;28;20053;-86
2023/04/18 06:21:29;;;;;;;36.70;16.00;;;;;;;8.51;71.87;100522.06;5008844;28;20268;-86
2023/04/18 06:23:56;;;;;;;40.60;15.55;;;;;;;8.60;71.24;100525.88;4988048;28;20046;-86
2023/04/18 06:26:23;;;;;;;36.00;14.27;;;;;;;8.71;70.92;100522.50;5001090;28;20211;-85
2023/04/18 06:28:50;;;;;;;40.88;15.60;;;;;;;8.75;71.07;100534.56;5003229;28;20049;-85
2023/04/18 06:31:17;;;;;;;38.92;15.90;;;;;;;8.68;71.13;100527.06;5016117;28;20095;-85
2023/04/18 06:33:44;;;;;;;32.55;15.05;;;;;;;8.77;70.76;100524.72;4983302;28;20053;-85
2023/04/18 06:36:10;;;;;;;38.47;15.35;;;;;;;8.68;71.50;100527.06;5013727;28;20041;-85
2023/04/18 06:38:37;;;;;;;37.67;16.70;;;;;;;8.72;71.85;100521.53;4998614;28;20072;-85
2023/04/18 06:41:04;;;;;;;38.20;16.17;;;;;;;8.76;71.60;100530.97;5018326;28;20044;-85
2023/04/18 06:43:31;;;;;;;38.60;15.85;;;;;;;8.87;71.28;100533.69;5010259;28;20515;-85
2023/04/18 06:45:59;;;;;;;40.53;17.30;;;;;;;8.84;71.89;100528.63;4992130;28;20120;-85
2023/04/18 06:48:26;;;;;;;40.90;15.93;;;;;;;8.86;71.64;100534.66;5006440;28;20461;-86
2023/04/18 06:50:53;;;;;;;43.47;15.85;;;;;;;8.87;71.32;100531.91;5014639;28;20050;-85
2023/04/18 06:53:20;;;;;;;41.72;17.05;;;;;;;8.83;72.11;100530.44;5008745;28;20049;-85
2023/04/18 06:55:47;;;;;;;36.05;15.77;;;;;;;8.92;71.17;100531.56;4985077;28;20050;-86
2023/04/18 06:58:16;;;;;;;40.67;14.68;;;;;;;8.88;72.15;100533.59;5005682;28;20490;-85
2023/04/18 07:00:46;;;;;;;38.22;13.98;;;;;;;8.91;71.82;100530.75;5000839;28;20133;-84
2023/04/18 07:03:13;;;;;;;37.20;15.80;;;;;;;8.94;71.50;100521.72;5014802;28;20123;-84
2023/04/18 07:05:40;;;;;;;39.90;16.45;;;;;;;9.01;71.75;100530.94;4995172;28;20110;-85
2023/04/18 07:08:07;;;;;;;32.35;13.80;;;;;;;9.13;71.73;100532.72;4996764;28;20057;-85
2023/04/18 07:10:34;;;;;;;38.10;14.70;;;;;;;9.02;71.66;100526.47;5013047;28;20094;-85
2023/04/18 07:13:01;;;;;;;39.10;14.50;;;;;;;9.06;71.69;100530.63;5012557;28;20049;-85
2023/04/18 07:15:28;;;;;;;37.25;16.23;;;;;;;9.10;72.00;100526.78;5009612;28;20131;-85
2023/04/18 07:17:54;;;;;;;40.80;14.65;;;;;;;9.04;72.46;100541.31;5009590;28;20069;-85
2023/04/18 07:20:21;;;;;;;37.25;14.70;;;;;;;9.05;72.35;100536.84;4979340;28;20064;-85
2023/04/18 07:22:48;;;;;;;38.92;14.35;;;;;;;9.05;72.55;100550.09;4986612;28;20053;-86
2023/04/18 07:25:16;;;;;;;38.22;15.02;;;;;;;9.13;71.38;100523.91;5000212;28;20078;-85
2023/04/18 07:27:43;;;;;;;39.90;13.95;;;;;;;8.97;73.02;100534.75;5013799;28;20061;-85
2023/04/18 07:30:10;;;;;;;38.38;15.20;;;;;;;9.05;72.52;100536.84;5017365;28;20128;-85
2023/04/18 07:32:37;;;;;;;39.25;15.50;;;;;;;8.98;73.40;100544.41;5009105;28;20103;-86
2023/04/18 07:35:04;;;;;;;38.40;15.98;;;;;;;9.09;73.18;100535.69;5011588;28;20521;-86
2023/04/18 07:37:31;;;;;;;39.78;16.63;;;;;;;9.11;73.10;100537.28;5003492;28;20041;-85
2023/04/18 07:39:58;;;;;;;36.90;14.95;;;;;;;9.17;72.82;100536.00;5016215;28;20372;-85
2023/04/18 07:42:25;;;;;;;41.80;15.07;;;;;;;9.21;72.85;100528.66;4984053;28;20069;-86
2023/04/18 07:44:57;;;;;;;41.65;17.30;;;;;;;9.24;72.73;100533.75;5015995;28;20052;-86
2023/04/18 07:47:26;;;;;;;35.07;14.07;;;;;;;9.30;72.65;100528.84;5008757;28;20088;-85
2023/04/18 07:50:19;;;;;;;34.70;14.45;;;;;;;9.24;73.76;100539.06;4990717;28;20561;-85
2023/04/18 07:52:56;;;;;;;36.28;15.27;;;;;;;9.22;73.86;100540.97;4958553;28;20099;-85
2023/04/18 07:55:23;;;;;;;38.42;15.18;;;;;;;9.22;73.15;100538.31;5007477;28;20061;-86
2023/04/18 07:57:56;;;;;;;;;;;;;;;9.15;73.61;100535.25;4989668;28;20049;-86
2023/04/18 08:00:27;;;;;;;42.20;16.27;;;;;;;9.25;73.71;100538.94;4993780;28;20353;-85
2023/04/18 08:02:55;;;;;;;38.88;16.02;;;;;;;9.30;73.88;100530.66;4985437;28;20091;-86
2023/04/18 08:05:23;;;;;;;38.95;14.90;;;;;;;9.27;73.63;100533.53;4997640;28;20061;-86
2023/04/18 08:08:02;;;;;;;42.42;15.60;;;;;;;9.42;73.07;100531.59;5041372;28;20071;-86
2023/04/18 08:10:29;;;;;;;35.50;14.65;;;;;;;9.42;73.41;100534.22;4971254;28;20057;-86
2023/04/18 08:12:56;;;;;;;41.35;16.70;;;;;;;9.47;74.05;100529.44;4987484;28;20038;-86
2023/04/18 08:15:23;;;;;;;46.92;16.90;;;;;;;9.61;74.40;100526.63;4990833;28;20053;-87
2023/04/18 08:17:50;;;;;;;45.33;16.13;;;;;;;9.60;73.55;100527.59;5004903;28;20073;-87
2023/04/18 08:20:17;;;;;;;43.05;15.65;;;;;;;9.61;74.04;100528.44;4985675;28;20049;-87
2023/04/18 08:22:44;;;;;;;42.05;14.88;;;;;;;9.63;73.26;100537.13;5007332;28;20038;-86
2023/04/18 08:25:31;;;;;;;37.67;14.52;;;;;;;9.60;73.17;100532.06;4988099;28;20520;-86
2023/04/18 08:28:00;;;;;;;41.42;16.73;;;;;;;9.51;73.64;100522.94;5011256;28;20494;-86
2023/04/18 08:30:27;;;;;;;38.90;16.73;;;;;;;9.56;74.12;100536.72;4995318;28;20104;-86
2023/04/18 08:32:54;;;;;;;42.83;17.13;;;;;;;9.60;73.96;100524.94;4996014;28;20076;-86
2023/04/18 08:35:21;;;;;;;51.40;15.05;;;;;;;9.60;74.24;100527.59;5004890;28;20134;-86
2023/04/18 08:37:48;;;;;;;49.90;17.13;;;;;;;9.70;74.46;100525.94;4984033;28;20049;-86
2023/04/18 08:40:15;;;;;;;43.03;17.48;;;;;;;9.69;74.70;100531.34;4998564;28;20049;-86
2023/04/18 08:42:45;;;;;;;42.05;15.35;;;;;;;9.69;75.53;100544.63;4997106;28;20445;-85
2023/04/18 08:45:13;;;;;;;42.95;15.73;;;;;;;9.83;74.19;100533.00;4972349;28;20091;-86
2023/04/18 08:47:40;;;;;;;41.25;14.45;;;;;;;9.78;74.63;100520.91;4983637;28;20057;-85
2023/04/18 08:50:08;;;;;;;42.30;15.13;;;;;;;9.72;74.07;100533.81;5007389;28;20038;-86
2023/04/18 08:52:36;;;;;;;37.47;14.07;;;;;;;9.78;73.94;100538.66;4987575;28;20129;-86
2023/04/18 08:55:04;;;;;;;38.38;14.93;;;;;;;9.80;74.68;100551.81;5016892;28;20078;-85
2023/04/18 08:57:32;;;;;;;45.85;15.02;;;;;;;9.79;74.34;100545.63;4968850;28;20056;-86
2023/04/18 09:00:07;;;;;;;40.60;15.90;;;;;;;9.76;74.57;100561.78;5009162;28;20049;-86
2023/04/18 09:02:41;;;;;;;41.85;15.10;;;;;;;9.81;75.01;100553.47;4994858;28;20622;-86
2023/04/18 09:05:12;;;;;;;37.47;15.15;;;;;;;9.87;74.78;100556.53;4989860;28;20104;-85
2023/04/18 09:07:39;;;;;;;50.70;16.33;;;;;;;9.82;74.21;100555.16;5001005;28;20052;-86
2023/04/18 09:10:06;;;;;;;47.17;16.20;;;;;;;9.84;74.63;100558.56;4994848;28;20037;-86
2023/04/18 09:12:41;;;;;;;42.78;14.65;;;;;;;9.88;73.89;100552.91;4993885;28;20119;-86
2023/04/18 09:15:19;;;;;;;41.13;15.07;;;;;;;9.89;74.44;100540.50;5006434;28;20049;-86
2023/04/18 09:17:52;;;;;;;37.17;13.85;;;;;;;10.03;74.72;100540.31;4987312;28;20049;-86
2023/04/18 09:20:29;;;;;;;40.38;15.73;;;;;;;10.04;74.87;100549.97;5002836;28;20052;-86
2023/04/18 09:22:59;;;;;;;46.80;15.30;;;;;;;10.05;74.46;100553.44;4991761;28;20088;-86
2023/04/18 09:25:36;;;;;;;47.92;16.73;;;;;;;10.10;75.51;100544.22;4971102;28;20057;-87
2023/04/18 09:28:26;;;;;;;42.28;15.35;;;;;;;10.15;74.04;100544.72;5004345;28;20335;-86
2023/04/18 09:31:10;;;;;;;47.33;15.55;;;;;;;10.15;74.48;100546.50;5014158;28;20999;-85
2023/04/18 09:33:51;;;;;;;41.00;14.65;;;;;;;10.21;74.07;100549.53;4991770;28;20128;-85
2023/04/18 09:36:26;;;;;;;37.20;14.90;;;;;;;10.32;73.96;100543.44;5000438;28;20390;-85
2023/04/18 09:38:53;;;;;;;40.47;13.93;;;;;;;10.39;74.51;100535.88;5015157;28;20679;-86
2023/04/18 09:41:23;;;;;;;41.67;14.93;;;;;;;10.47;74.19;100540.59;4984970;28;20506;-85
2023/04/18 09:44:07;;;;;;;42.42;15.43;;;;;;;10.46;74.08;100542.41;4981435;28;20049;-86
2023/04/18 09:46:34;;;;;;;34.33;12.95;;;;;;;10.58;74.17;100548.56;4979875;28;20117;-85
2023/04/18 09:49:01;;;;;;;38.08;14.90;;;;;;;10.65;73.97;100539.16;4973267;28;20056;-85
2023/04/18 09:51:30;;;;;;;38.67;14.77;;;;;;;10.74;73.41;100545.59;4997586;28;20674;-85
2023/04/18 09:53:57;;;;;;;39.22;15.63;;;;;;;10.63;73.54;100536.66;4987883;28;20049;-86
2023/04/18 09:56:27;;;;;;;44.63;15.32;;;;;;;10.73;72.99;100552.69;4995847;28;21466;-86
2023/04/18 09:58:56;;;;;;;39.95;14.50;;;;;;;10.75;72.83;100547.28;4991121;28;20054;-86
2023/04/18 10:01:27;;;;;;;39.70;14.15;;;;;;;10.68;72.69;100543.41;4997415;28;20076;-86
2023/04/18 10:03:55;;;;;;;42.63;14.57;;;;;;;10.73;73.62;100538.56;4997296;28;20050;-86
2023/04/18 10:06:22;;;;;;;41.25;13.77;;;;;;;10.73;74.24;100539.41;5015359;28;20056;-86
2023/04/18 10:08:53;;;;;;;40.95;15.57;;;;;;;10.73;73.82;100536.75;4977346;28;20406;-86
2023/04/18 10:11:22;;;;;;;42.72;15.77;;;;;;;10.73;73.20;100550.03;4988509;28;20053;-86
2023/04/18 10:13:52;;;;;;;46.92;16.08;;;;;;;10.81;73.62;100538.81;5001848;28;20096;-86
2023/04/18 10:16:19;;;;;;;42.03;15.25;;;;;;;10.84;73.44;100535.94;4964387;28;20103;-86
2023/04/18 10:18:48;;;;;;;38.08;13.70;;;;;;;10.92;72.96;100536.19;4972827;28;20048;-86
2023/04/18 10:21:16;;;;;;;46.00;17.10;;;;;;;10.78;73.33;100534.59;4991343;28;20038;-86
2023/04/18 10:23:47;;;;;;;41.90;15.75;;;;;;;10.85;73.44;100529.66;5019803;28;20067;-86
2023/04/18 10:26:14;;;;;;;37.25;13.70;;;;;;;10.98;72.57;100527.72;5002323;28;20373;-86
2023/04/18 10:28:57;;;;;;;43.28;15.98;;;;;;;10.95;74.12;100527.13;5003310;28;20053;-86
2023/04/18 10:31:25;;;;;;;42.25;15.35;;;;;;;11.04;71.46;100524.59;5009609;28;20084;-86
2023/04/18 10:33:57;;;;;;;42.60;17.13;;;;;;;11.08;71.34;100527.84;5015193;28;20037;-86
2023/04/18 10:36:27;;;;;;;42.40;15.45;;;;;;;11.13;71.12;100516.84;4995467;28;20041;-85
2023/04/18 10:38:59;;;;;;;41.92;15.65;;;;;;;11.11;71.63;100521.44;5015753;28;20155;-86
2023/04/18 10:41:28;;;;;;;39.13;15.48;;;;;;;11.17;71.52;100520.91;4985931;28;20141;-86
2023/04/18 10:44:14;;;;;;;38.92;13.85;;;;;;;11.18;71.73;100520.81;5003708;28;20051;-87
2023/04/18 10:46:50;;;;;;;39.70;15.27;;;;;;;11.19;72.58;100519.00;5002261;28;20503;-86
2023/04/18 10:49:28;;;;;;;37.13;14.48;;;;;;;11.25;71.93;100510.53;5010108;28;20064;-85
2023/04/18 10:51:59;;;;;;;38.88;14.18;;;;;;;11.26;72.44;100522.84;4999211;28;20056;-86
2023/04/18 10:54:46;;;;;;;38.42;13.43;;;;;;;11.24;71.85;100548.72;5006153;28;20056;-87
2023/04/18 10:57:14;;;;;;;36.35;14.15;;;;;;;11.22;71.87;100521.41;5001564;28;20578;-86
2023/04/18 10:59:43;;;;;;;37.75;14.00;;;;;;;11.22;71.67;100510.78;4998492;28;20099;-85
2023/04/18 11:02:29;;;;;;;33.28;13.57;;;;;;;11.21;72.39;100504.63;4999509;28;20057;-85
2023/04/18 11:05:00;;;;;;;32.88;13.70;;;;;;;11.35;72.45;100497.31;5015371;28;20056;-86
2023/04/18 11:07:47;;;;;;;30.77;13.43;;;;;;;11.40;73.75;100501.31;5014052;28;20085;-85
2023/04/18 11:10:19;;;;;;;29.15;13.65;;;;;;;11.49;72.05;100497.91;5003160;28;20075;-85
2023/04/18 11:12:50;;;;;;;36.78;14.27;;;;;;;11.49;72.94;100505.03;5014359;28;20140;-86
2023/04/18 11:15:22;;;;;;;29.15;12.73;;;;;;;11.49;71.70;100492.56;5011993;28;20053;-86
2023/04/18 11:18:00;;;;;;;31.77;12.40;;;;;;;11.45;73.12;100493.81;4995874;28;20041;-85
2023/04/18 11:20:28;;;;;;;30.98;12.63;;;;;;;11.43;71.88;100503.72;5013483;28;20080;-84
2023/04/18 11:22:56;;;;;;;27.33;10.93;;;;;;;11.47;72.08;100488.34;5018761;28;20120;-85
2023/04/18 11:25:31;;;;;;;31.27;13.18;;;;;;;11.47;73.39;100506.97;4988625;28;20053;-85